createdAt,value
2022-09-07T00:00:31.929Z,98600.28
2022-09-07T00:03:17.693Z,98599.72
2022-09-07T00:06:09.277Z,98746.66
2022-09-07T00:08:55.419Z,98782.06
2022-09-07T00:11:40.860Z,98796.44
2022-09-07T00:14:26.357Z,98767.25
2022-09-07T00:17:11.623Z,98769.88
2022-09-07T00:19:57.177Z,98764.56
2022-09-07T00:22:42.429Z,98750.72
2022-09-07T00:25:30.741Z,98779.53
2022-09-07T00:28:17.325Z,98715.75
2022-09-07T00:31:03.789Z,98590.56
2022-09-07T00:33:50.706Z,98767.00
2022-09-07T00:36:36.070Z,98576.19
2022-09-07T00:39:21.309Z,98570.28
2022-09-07T00:42:06.796Z,98621.09
2022-09-07T00:45:01.915Z,98577.66
2022-09-07T00:47:56.817Z,98564.06
2022-09-07T00:50:53.578Z,98762.00
2022-09-07T00:53:44.938Z,98586.72
2022-09-07T00:56:34.847Z,98757.44
2022-09-07T00:59:25.172Z,98586.53
2022-09-07T01:02:12.332Z,98605.31
2022-09-07T01:05:09.513Z,98714.13
2022-09-07T01:07:56.431Z,98709.91
2022-09-07T01:10:42.238Z,98722.09
2022-09-07T01:13:28.025Z,98600.91
2022-09-07T01:16:32.712Z,98768.53
2022-09-07T01:19:27.268Z,98744.16
2022-09-07T01:22:28.208Z,98740.47
2022-09-07T01:25:25.933Z,98741.59
2022-09-07T01:28:22.092Z,98738.31
2022-09-07T01:31:42.983Z,98747.91
2022-09-07T01:34:28.657Z,98677.91
2022-09-07T01:37:43.547Z,98736.84
2022-09-07T01:41:13.875Z,98738.31
2022-09-07T01:44:40.612Z,98729.88
2022-09-07T01:47:32.124Z,98615.66
2022-09-07T01:50:36.331Z,98746.47
2022-09-07T01:53:45.133Z,98677.50
2022-09-07T01:56:36.153Z,98573.66
2022-09-07T01:59:27.613Z,98731.31
2022-09-07T02:02:28.648Z,98671.44
2022-09-07T02:05:20.865Z,98678.81
2022-09-07T02:08:10.579Z,98722.84
2022-09-07T02:11:02.309Z,98716.56
2022-09-07T02:13:56.682Z,98670.53
2022-09-07T02:17:06.725Z,98514.72
2022-09-07T02:20:03.627Z,98691.13
2022-09-07T02:22:54.174Z,98648.22
2022-09-07T02:25:44.726Z,98542.75
2022-09-07T02:28:35.485Z,98549.72
2022-09-07T02:31:21.482Z,98502.19
2022-09-07T02:34:07.134Z,98508.47
2022-09-07T02:36:54.133Z,98692.75
2022-09-07T02:39:39.784Z,98694.44
2022-09-07T02:42:35.890Z,98702.72
2022-09-07T02:45:21.951Z,98534.78
2022-09-07T02:48:23.126Z,98540.13
2022-09-07T02:51:50.102Z,98672.28
2022-09-07T02:55:00.715Z,98663.25
2022-09-07T02:58:20.805Z,98690.34
2022-09-07T03:01:09.123Z,98669.66
2022-09-07T03:04:12.852Z,98473.13
2022-09-07T03:07:30.253Z,98668.56
2022-09-07T03:10:17.980Z,98692.19
2022-09-07T03:13:03.810Z,98658.78
2022-09-07T03:15:55.025Z,98465.59
2022-09-07T03:18:42.476Z,98658.25
2022-09-07T03:21:27.896Z,98634.84
2022-09-07T03:24:13.094Z,98454.69
2022-09-07T03:26:59.155Z,98615.69
2022-09-07T03:29:44.680Z,98508.25
2022-09-07T03:32:35.069Z,98680.72
2022-09-07T03:35:20.594Z,98586.81
2022-09-07T03:38:06.229Z,98462.06
2022-09-07T03:41:06.791Z,98504.75
2022-09-07T03:43:52.372Z,98439.97
2022-09-07T03:46:37.871Z,98466.47
2022-09-07T03:49:23.263Z,98539.28
2022-09-07T03:52:08.856Z,98500.16
2022-09-07T03:54:54.193Z,98611.44
2022-09-07T03:57:40.439Z,98447.53
2022-09-07T04:00:26.101Z,98600.78
2022-09-07T04:03:11.483Z,98679.66
2022-09-07T04:05:59.818Z,98476.78
2022-09-07T04:08:45.824Z,98527.41
2022-09-07T04:11:32.022Z,98532.00
2022-09-07T04:14:17.946Z,98647.72
2022-09-07T04:17:03.433Z,98672.06
2022-09-07T04:19:49.297Z,98178.22
2022-09-07T04:22:35.250Z,98551.03
2022-09-07T04:25:20.898Z,98451.13
2022-09-07T04:28:06.462Z,98609.47
2022-09-07T04:30:51.911Z,98661.72
2022-09-07T04:33:37.761Z,98361.88
2022-09-07T04:36:24.966Z,98486.38
2022-09-07T04:39:11.088Z,98645.81
2022-09-07T04:41:56.851Z,98646.66
2022-09-07T04:44:42.230Z,98499.00
2022-09-07T04:47:30.594Z,98646.97
2022-09-07T04:50:18.067Z,98654.97
2022-09-07T04:53:03.839Z,98640.13
2022-09-07T04:55:49.124Z,98619.13
2022-09-07T04:58:35.333Z,98625.06
2022-09-07T05:01:22.826Z,98655.06
2022-09-07T05:04:09.035Z,98641.91
2022-09-07T05:06:54.841Z,98530.72
2022-09-07T05:09:40.434Z,98453.28
2022-09-07T05:12:25.889Z,98655.00
2022-09-07T05:15:11.575Z,98640.81
2022-09-07T05:18:00.312Z,98663.41
2022-09-07T05:20:45.751Z,98575.31
2022-09-07T05:23:31.165Z,98631.69
2022-09-07T05:26:17.165Z,98637.50
2022-09-07T05:32:11.206Z,98604.44
2022-09-07T05:34:56.502Z,98636.38
2022-09-07T05:37:41.974Z,98619.81
2022-09-07T05:40:31.820Z,98524.19
2022-09-07T05:43:18.014Z,98644.41
2022-09-07T05:46:03.961Z,98599.88
2022-09-07T05:48:50.094Z,98469.41
2022-09-07T05:51:37.239Z,98629.78
2022-09-07T05:54:22.600Z,98624.31
2022-09-07T05:57:11.466Z,98517.47
2022-09-07T05:59:56.934Z,98464.16
2022-09-07T06:02:43.397Z,98542.75
2022-09-07T06:05:29.050Z,98622.88
2022-09-07T06:08:14.422Z,98577.78
2022-09-07T06:11:08.724Z,98653.25
2022-09-07T06:13:54.214Z,98481.38
2022-09-07T06:16:40.286Z,98457.13
2022-09-07T06:19:25.587Z,98592.53
2022-09-07T06:22:11.243Z,98594.97
2022-09-07T06:24:56.899Z,98623.50
2022-09-07T06:27:42.264Z,98584.19
2022-09-07T06:30:27.795Z,98595.75
2022-09-07T06:33:15.011Z,98627.88
2022-09-07T06:36:05.238Z,98607.69
2022-09-07T06:38:51.581Z,98514.56
2022-09-07T06:44:48.188Z,98590.47
2022-09-07T06:47:33.582Z,98633.91
2022-09-07T06:50:18.888Z,98482.97
2022-09-07T06:56:13.441Z,98640.78
2022-09-07T06:58:59.833Z,98513.31
2022-09-07T07:01:45.639Z,98647.50
2022-09-07T07:04:30.874Z,98661.06
2022-09-07T07:07:16.439Z,98626.41
2022-09-07T07:10:01.890Z,98639.34
2022-09-07T07:12:47.276Z,98483.19
2022-09-07T07:15:33.420Z,98633.31
2022-09-07T07:18:21.235Z,98470.91
2022-09-07T07:21:12.807Z,98488.44
2022-09-07T07:23:58.822Z,98605.66
2022-09-07T07:26:48.579Z,98461.06
2022-09-07T07:29:34.231Z,98431.84
2022-09-07T07:32:19.767Z,98631.50
2022-09-07T07:35:07.467Z,98476.44
2022-09-07T07:44:05.585Z,98645.00
2022-09-07T07:46:51.703Z,98623.09
2022-09-07T07:49:37.309Z,98643.19
2022-09-07T07:55:43.745Z,98645.25
2022-09-07T07:58:32.512Z,98644.28
2022-09-07T08:01:22.138Z,98655.25
2022-09-07T08:04:08.125Z,98640.66
2022-09-07T08:06:53.820Z,98652.81
2022-09-07T08:09:44.465Z,98611.34
2022-09-07T08:12:31.333Z,98607.78
2022-09-07T08:15:16.880Z,98494.44
2022-09-07T08:18:03.795Z,98639.00
2022-09-07T08:20:49.396Z,98520.66
2022-09-07T08:23:35.180Z,98486.38
2022-09-07T08:26:20.883Z,98517.47
2022-09-07T08:29:06.361Z,98622.06
2022-09-07T08:31:52.123Z,98629.28
2022-09-07T08:34:56.785Z,98608.31
2022-09-07T08:37:42.069Z,98340.56
2022-09-07T08:40:27.552Z,98623.78
2022-09-07T08:43:21.647Z,98599.44
2022-09-07T08:46:27.946Z,98613.91
2022-09-07T08:49:20.419Z,98611.84
2022-09-07T08:52:12.147Z,98451.47
2022-09-07T08:55:10.969Z,98593.47
2022-09-07T08:58:45.265Z,98599.88
2022-09-07T09:01:33.145Z,98593.63
2022-09-07T09:04:28.654Z,98530.78
2022-09-07T09:07:36.081Z,98582.47
2022-09-07T09:10:35.925Z,98591.41
2022-09-07T09:13:34.762Z,98557.94
2022-09-07T09:16:38.290Z,98577.97
2022-09-07T09:20:08.170Z,98579.25
2022-09-07T09:23:39.511Z,98569.25
2022-09-07T09:26:27.368Z,98577.47
2022-09-07T09:29:21.457Z,98420.84
2022-09-07T09:32:41.418Z,98569.25
2022-09-07T09:35:36.165Z,98541.19
2022-09-07T09:38:29.489Z,98450.13
2022-09-07T09:41:16.161Z,98407.75
2022-09-07T09:44:03.437Z,98514.38
2022-09-07T09:50:05.309Z,98416.38
2022-09-07T09:52:52.779Z,98525.88
2022-09-07T09:55:38.238Z,98548.06
2022-09-07T10:04:51.787Z,98550.19
2022-09-07T10:07:37.733Z,98553.31
2022-09-07T10:10:23.761Z,98552.09
2022-09-07T10:13:21.571Z,98535.06
2022-09-07T10:16:09.227Z,98444.91
2022-09-07T10:18:57.648Z,98526.78
2022-09-07T10:21:57.998Z,98394.59
2022-09-07T10:24:44.621Z,98534.31
2022-09-07T10:27:33.187Z,98533.44
2022-09-07T10:30:19.026Z,98518.00
2022-09-07T10:33:12.258Z,98402.88
2022-09-07T10:36:24.179Z,98529.81
2022-09-07T10:39:25.654Z,98525.44
2022-09-07T10:43:20.554Z,98517.00
2022-09-07T10:46:06.873Z,98537.63
2022-09-07T10:49:37.797Z,98516.03
2022-09-07T10:52:23.971Z,98510.59
2022-09-07T10:55:16.965Z,98517.56
2022-09-07T10:58:21.131Z,98375.13
2022-09-07T11:01:51.979Z,98510.59
2022-09-07T11:05:31.085Z,98498.97
2022-09-07T11:12:01.116Z,98515.84
2022-09-07T11:14:52.615Z,98492.22
2022-09-07T11:18:04.794Z,98502.19
2022-09-07T11:20:55.576Z,98491.13
2022-09-07T11:24:03.802Z,98475.06
2022-09-07T11:26:55.204Z,98466.91
2022-09-07T11:30:24.134Z,98484.59
2022-09-07T11:33:25.332Z,98476.41
2022-09-07T11:36:18.105Z,98434.75
2022-09-07T11:39:17.497Z,98481.09
2022-09-07T11:45:30.898Z,98410.84
2022-09-07T11:48:41.702Z,98471.22
2022-09-07T11:51:38.852Z,98471.81
2022-09-07T11:54:43.157Z,98457.63
2022-09-07T11:57:53.614Z,98462.00
2022-09-07T12:00:43.726Z,98469.22
2022-09-07T12:04:15.418Z,98432.22
2022-09-07T12:07:26.890Z,98449.91
2022-09-07T12:10:51.144Z,98431.41
2022-09-07T12:13:58.500Z,98438.88
2022-09-07T12:17:04.073Z,98297.66
2022-09-07T12:20:18.641Z,98450.41
2022-09-07T12:23:16.370Z,98437.69
2022-09-07T12:26:33.471Z,98438.81
2022-09-07T12:29:24.839Z,98292.25
2022-09-07T12:35:33.983Z,98452.50
2022-09-07T12:38:19.547Z,98458.13
2022-09-07T12:41:24.873Z,98296.84
2022-09-07T12:44:20.122Z,98421.84
2022-09-07T12:47:12.577Z,98426.66
2022-09-07T12:50:06.576Z,98381.25
2022-09-07T12:53:10.800Z,98431.06
2022-09-07T12:56:24.574Z,98286.34
2022-09-07T12:59:32.754Z,98416.81
2022-09-07T13:02:33.738Z,98416.91
2022-09-07T13:05:35.925Z,98313.25
2022-09-07T13:08:46.848Z,98364.50
2022-09-07T13:11:38.437Z,98386.81
2022-09-07T13:14:28.665Z,98281.00
2022-09-07T13:17:34.798Z,98387.41
2022-09-07T13:20:24.075Z,98405.41
2022-09-07T13:23:21.283Z,98401.59
2022-09-07T13:26:10.922Z,98265.59
2022-09-07T13:29:00.965Z,98398.16
2022-09-07T13:32:10.382Z,98392.50
2022-09-07T13:35:03.430Z,98365.63
2022-09-07T13:37:54.378Z,98416.97
2022-09-07T13:40:47.033Z,98251.28
2022-09-07T13:43:34.669Z,98391.59
2022-09-07T13:46:32.253Z,98384.53
2022-09-07T13:49:55.880Z,98387.28
2022-09-07T13:53:07.204Z,98383.81
2022-09-07T13:56:08.612Z,98390.72
2022-09-07T13:58:55.147Z,98378.91
2022-09-07T14:01:45.429Z,98252.75
2022-09-07T14:04:41.264Z,98325.31
2022-09-07T14:07:29.692Z,98377.59
2022-09-07T14:10:25.147Z,98385.09
2022-09-07T14:13:12.830Z,98241.00
2022-09-07T14:15:58.636Z,98268.69
2022-09-07T14:18:44.415Z,98397.41
2022-09-07T14:21:31.292Z,98231.69
2022-09-07T14:24:29.693Z,98210.19
2022-09-07T14:27:35.006Z,98384.88
2022-09-07T14:30:25.313Z,98336.19
2022-09-07T14:33:17.401Z,98264.84
2022-09-07T14:36:23.294Z,98376.00
2022-09-07T14:39:12.251Z,98393.16
2022-09-07T14:41:58.929Z,98318.09
2022-09-07T14:44:45.416Z,98370.03
2022-09-07T14:47:34.071Z,98239.63
2022-09-07T14:50:34.710Z,98245.34
2022-09-07T14:53:36.309Z,98378.00
2022-09-07T14:56:31.489Z,98374.31
2022-09-07T14:59:28.518Z,98410.47
2022-09-07T15:02:28.237Z,98377.84
2022-09-07T15:05:25.969Z,98374.31
2022-09-07T15:08:20.383Z,98340.13
2022-09-07T15:14:20.787Z,98380.44
2022-09-07T15:20:42.747Z,98370.47
2022-09-07T15:23:29.305Z,98332.06
2022-09-07T15:29:21.576Z,98240.25
2022-09-07T15:32:09.962Z,98285.06
2022-09-07T15:34:55.354Z,98355.97
2022-09-07T15:41:18.143Z,98239.91
2022-09-07T15:43:57.893Z,98265.03
2022-09-07T15:47:43.225Z,98404.50
2022-09-07T15:49:51.512Z,98330.00
2022-09-07T15:52:39.930Z,98373.28
2022-09-07T15:55:25.740Z,98251.75
2022-09-07T15:58:14.395Z,98374.81
2022-09-07T16:04:07.206Z,98203.63
2022-09-07T16:06:52.524Z,98376.91
2022-09-07T16:09:37.985Z,98231.91
2022-09-07T16:15:28.656Z,98355.66
2022-09-07T16:18:17.133Z,98370.00
2022-09-07T16:21:06.727Z,98387.84
2022-09-07T16:23:54.162Z,98363.53
2022-09-07T16:26:40.100Z,98367.63
2022-09-07T16:29:26.670Z,98319.34
2022-09-07T16:35:18.155Z,98340.03
2022-09-07T16:41:17.080Z,98363.59
2022-09-07T16:44:02.937Z,98210.72
2022-09-07T16:46:50.412Z,98314.00
2022-09-07T16:49:36.744Z,98256.94
2022-09-07T16:52:23.380Z,98365.19
2022-09-07T16:55:09.337Z,98377.91
2022-09-07T17:01:00.178Z,98386.22
2022-09-07T17:03:46.275Z,98376.59
2022-09-07T17:06:31.717Z,98381.91
2022-09-07T17:09:17.225Z,98368.34
2022-09-07T17:12:03.641Z,98211.63
2022-09-07T17:14:48.946Z,98271.50
2022-09-07T17:17:34.446Z,98386.97
2022-09-07T17:20:19.861Z,98238.28
2022-09-07T17:23:05.400Z,98391.25
2022-09-07T17:25:51.023Z,98398.81
2022-09-07T17:28:37.626Z,98412.06
2022-09-07T17:34:31.596Z,98400.00
2022-09-07T17:37:17.736Z,98256.75
2022-09-07T17:40:05.745Z,98300.06
2022-09-07T17:46:03.012Z,98405.75
2022-09-07T17:48:57.115Z,98433.53
2022-09-07T17:51:43.860Z,98260.66
2022-09-07T17:54:29.065Z,98407.34
2022-09-07T17:57:14.422Z,98393.69
2022-09-07T18:00:16.213Z,98421.34
2022-09-07T18:03:03.513Z,98377.56
2022-09-07T18:05:53.634Z,98413.91
2022-09-07T18:08:39.576Z,98436.19
2022-09-07T18:14:31.049Z,98423.44
2022-09-07T18:17:16.796Z,98294.59
2022-09-07T18:20:02.497Z,98408.78
2022-09-07T18:22:48.435Z,98430.19
2022-09-07T18:25:34.472Z,98263.16
2022-09-07T18:31:26.178Z,98258.31
2022-09-07T18:34:12.116Z,98364.34
2022-09-07T18:36:58.226Z,98386.81
2022-09-07T18:39:43.736Z,98438.34
2022-09-07T18:42:30.318Z,98454.63
2022-09-07T18:45:31.225Z,98433.50
2022-09-07T18:48:16.793Z,98371.47
2022-09-07T18:51:02.742Z,98420.31
2022-09-07T18:53:48.509Z,98422.41
2022-09-07T18:56:34.011Z,98390.69
2022-09-07T18:59:19.476Z,98354.31
2022-09-07T19:02:08.021Z,98270.41
2022-09-07T19:08:03.511Z,98423.22
2022-09-07T19:10:49.113Z,98445.13
2022-09-07T19:13:35.858Z,98324.69
2022-09-07T19:16:21.587Z,98264.25
2022-09-07T19:19:07.464Z,98448.34
2022-09-07T19:21:54.576Z,98423.72
2022-09-07T19:24:40.099Z,98290.88
2022-09-07T19:27:27.124Z,98437.06
2022-09-07T19:30:13.286Z,98422.94
2022-09-07T19:33:03.996Z,98266.59
2022-09-07T19:35:50.780Z,98426.53
2022-09-07T19:38:37.007Z,98273.19
2022-09-07T19:41:22.620Z,98434.88
2022-09-07T19:44:08.546Z,98430.63
2022-09-07T19:46:53.857Z,98399.16
2022-09-07T19:49:39.347Z,98388.09
2022-09-07T19:52:24.714Z,98435.78
2022-09-07T19:55:10.133Z,98419.59
2022-09-07T19:57:55.572Z,98418.41
2022-09-07T20:00:41.827Z,98450.56
2022-09-07T20:03:27.247Z,98417.09
2022-09-07T20:06:15.716Z,98380.31
2022-09-07T20:09:03.244Z,98394.09
2022-09-07T20:11:52.864Z,98408.19
2022-09-07T20:14:38.158Z,98409.97
2022-09-07T20:17:24.175Z,98419.50
2022-09-07T20:20:10.085Z,98416.88
2022-09-07T20:22:55.858Z,98418.25
2022-09-07T20:25:41.097Z,98417.03
2022-09-07T20:28:27.243Z,98408.53
2022-09-07T20:31:20.314Z,98423.81
2022-09-07T20:34:05.886Z,98263.44
2022-09-07T20:36:52.204Z,98420.88
2022-09-07T20:39:39.568Z,98436.13
2022-09-07T20:42:25.491Z,98425.88
2022-09-07T20:45:11.037Z,98428.25
2022-09-07T20:47:56.280Z,98443.09
2022-09-07T20:50:42.039Z,98448.25
2022-09-07T20:53:31.362Z,98435.34
2022-09-07T20:56:22.377Z,98440.31
2022-09-07T20:59:08.172Z,98335.00
2022-09-07T21:01:53.660Z,98444.69
2022-09-07T21:04:42.197Z,98385.31
2022-09-07T21:07:27.448Z,98303.13
2022-09-07T21:10:12.883Z,98449.84
2022-09-07T21:12:58.176Z,98422.91
2022-09-07T21:15:44.919Z,98386.94
2022-09-07T21:18:30.486Z,98425.03
2022-09-07T21:21:20.374Z,98407.88
2022-09-07T21:24:12.937Z,98428.53
2022-09-07T21:26:58.340Z,98436.31
2022-09-07T21:29:43.972Z,98402.06
2022-09-07T21:32:29.290Z,98440.41
2022-09-07T21:35:14.720Z,98413.47
2022-09-07T21:38:00.701Z,98429.59
2022-09-07T21:40:46.216Z,98446.41
2022-09-07T21:43:31.654Z,98265.84
2022-09-07T21:46:18.709Z,98263.22
2022-09-07T21:49:04.704Z,98273.31
2022-09-07T21:51:50.374Z,98411.00
2022-09-07T21:54:35.901Z,98421.69
2022-09-07T21:57:21.163Z,98430.63
2022-09-07T22:00:08.816Z,98348.97
2022-09-07T22:02:54.705Z,98393.88
2022-09-07T22:05:40.111Z,98398.69
2022-09-07T22:08:25.581Z,98223.75
2022-09-07T22:11:17.446Z,98404.56
2022-09-07T22:14:04.476Z,98238.81
2022-09-07T22:16:50.087Z,98380.41
2022-09-07T22:19:35.817Z,98367.53
2022-09-07T22:22:21.422Z,98393.88
2022-09-07T22:25:06.979Z,98344.16
2022-09-07T22:27:53.429Z,98352.63
2022-09-07T22:30:39.005Z,98238.78
2022-09-07T22:33:24.350Z,98376.75
2022-09-07T22:36:25.052Z,98232.31
2022-09-07T22:39:16.796Z,98413.31
2022-09-07T22:42:02.427Z,98370.75
2022-09-07T22:44:47.784Z,98260.19
2022-09-07T22:47:33.274Z,98336.13
2022-09-07T22:50:20.379Z,98391.63
2022-09-07T22:53:05.528Z,98219.84
2022-09-07T22:55:50.927Z,98224.50
2022-09-07T22:58:37.335Z,98401.09
2022-09-07T23:01:23.566Z,98297.41
2022-09-07T23:04:10.498Z,98205.16
2022-09-07T23:06:56.847Z,98375.47
2022-09-07T23:09:41.995Z,98379.13
2022-09-07T23:12:27.419Z,98346.00
2022-09-07T23:15:12.710Z,98376.78
2022-09-07T23:17:58.571Z,98225.66
2022-09-07T23:20:44.194Z,98201.97
2022-09-07T23:23:29.896Z,98394.91
2022-09-07T23:26:15.088Z,98366.09
2022-09-07T23:29:03.429Z,98367.38
2022-09-07T23:31:49.024Z,98218.00
2022-09-07T23:34:34.676Z,98395.13
2022-09-07T23:37:19.994Z,98211.84
2022-09-07T23:40:06.420Z,98306.94
2022-09-07T23:42:51.799Z,98265.41
2022-09-07T23:45:37.134Z,98327.91
2022-09-07T23:48:25.141Z,98366.09
2022-09-07T23:51:11.916Z,98340.63
2022-09-07T23:53:57.280Z,98400.72
2022-09-07T23:56:42.893Z,98346.16
2022-09-07T23:59:28.090Z,98406.03
